createdAt,value
2022-12-11T00:00:22.748Z,29.17
2022-12-11T00:02:49.459Z,23.33
2022-12-11T00:05:16.144Z,26.90
2022-12-11T00:07:42.738Z,30.63
2022-12-11T00:10:09.444Z,25.92
2022-12-11T00:12:36.044Z,27.25
2022-12-11T00:15:03.864Z,27.92
2022-12-11T00:17:30.415Z,23.33
2022-12-11T00:19:56.996Z,26.67
2022-12-11T00:22:23.603Z,27.48
2022-12-11T00:24:51.589Z,24.77
2022-12-11T00:27:18.624Z,25.15
2022-12-11T00:29:45.354Z,25.48
2022-12-11T00:32:11.979Z,25.38
2022-12-11T00:34:38.641Z,26.88
2022-12-11T00:37:05.191Z,24.90
2022-12-11T00:39:31.845Z,22.83
2022-12-11T00:41:58.383Z,24.63
2022-12-11T00:44:25.060Z,23.85
2022-12-11T00:46:51.594Z,22.25
2022-12-11T00:49:18.108Z,26.20
2022-12-11T00:51:44.708Z,25.20
2022-12-11T00:54:11.195Z,24.15
2022-12-11T00:56:37.791Z,24.45
2022-12-11T00:59:04.273Z,28.75
2022-12-11T01:01:30.898Z,26.98
2022-12-11T01:03:57.528Z,25.58
2022-12-11T01:06:25.839Z,26.33
2022-12-11T01:09:14.372Z,28.00
2022-12-11T01:11:42.457Z,27.05
2022-12-11T01:14:10.925Z,27.60
2022-12-11T01:16:37.663Z,26.95
2022-12-11T01:19:04.526Z,25.70
2022-12-11T01:21:31.049Z,25.85
2022-12-11T01:23:57.584Z,27.48
2022-12-11T01:26:24.179Z,27.92
2022-12-11T01:28:51.846Z,25.73
2022-12-11T01:31:20.822Z,28.38
2022-12-11T01:33:47.762Z,25.48
2022-12-11T01:36:18.365Z,27.65
2022-12-11T01:38:46.808Z,28.70
2022-12-11T01:41:14.007Z,26.73
2022-12-11T01:43:57.981Z,27.75
2022-12-11T01:46:25.213Z,27.40
2022-12-11T01:48:52.696Z,25.27
2022-12-11T01:51:19.260Z,26.98
2022-12-11T01:53:59.035Z,27.10
2022-12-11T01:56:25.944Z,27.05
2022-12-11T01:58:57.545Z,27.88
2022-12-11T02:01:45.896Z,28.02
2022-12-11T02:04:15.787Z,25.70
2022-12-11T02:06:45.467Z,27.90
2022-12-11T02:09:15.571Z,28.67
2022-12-11T02:12:19.452Z,28.65
2022-12-11T02:15:17.608Z,29.80
2022-12-11T02:17:54.459Z,27.65
2022-12-11T02:20:31.314Z,28.77
2022-12-11T02:23:13.003Z,27.45
2022-12-11T02:25:39.445Z,28.42
2022-12-11T02:28:08.824Z,29.90
2022-12-11T02:30:37.180Z,28.85
2022-12-11T02:33:03.986Z,29.42
2022-12-11T02:35:43.212Z,34.15
2022-12-11T02:38:24.308Z,31.10
2022-12-11T02:40:53.202Z,28.58
2022-12-11T02:43:22.279Z,27.77
2022-12-11T02:45:51.348Z,29.55
2022-12-11T02:48:20.527Z,28.25
2022-12-11T02:50:50.161Z,29.55
2022-12-11T02:53:20.125Z,27.35
2022-12-11T02:55:50.012Z,29.48
2022-12-11T02:58:21.993Z,30.73
2022-12-11T03:00:48.704Z,32.00
2022-12-11T03:03:16.301Z,31.75
2022-12-11T03:05:43.020Z,31.45
2022-12-11T03:08:09.734Z,28.30
2022-12-11T03:10:36.349Z,30.33
2022-12-11T03:13:03.817Z,30.52
2022-12-11T03:16:02.757Z,32.38
2022-12-11T03:18:56.494Z,30.00
2022-12-11T03:21:30.816Z,30.85
2022-12-11T03:24:07.819Z,28.38
2022-12-11T03:26:42.139Z,31.48
2022-12-11T03:29:21.954Z,28.77
2022-12-11T03:32:03.972Z,27.33
2022-12-11T03:34:42.958Z,30.27
2022-12-11T03:37:11.431Z,30.05
2022-12-11T03:39:43.579Z,31.23
2022-12-11T03:42:13.005Z,31.17
2022-12-11T03:44:41.749Z,29.90
2022-12-11T03:47:10.148Z,29.40
2022-12-11T03:49:41.949Z,31.92
2022-12-11T03:52:12.190Z,29.90
2022-12-11T03:54:41.936Z,31.08
2022-12-11T03:57:12.083Z,29.05
2022-12-11T03:59:38.615Z,29.08
2022-12-11T04:02:11.031Z,27.00
2022-12-11T04:04:38.953Z,27.35
2022-12-11T04:07:05.639Z,26.90
2022-12-11T04:09:32.854Z,27.45
2022-12-11T04:11:59.737Z,28.40
2022-12-11T04:14:45.063Z,26.35
2022-12-11T04:17:11.575Z,27.88
2022-12-11T04:19:56.753Z,26.70
2022-12-11T04:22:41.594Z,27.45
2022-12-11T04:25:08.635Z,27.52
2022-12-11T04:27:50.103Z,26.30
2022-12-11T04:30:23.093Z,25.85
2022-12-11T04:32:50.021Z,27.80
2022-12-11T04:35:17.211Z,27.48
2022-12-11T04:37:43.938Z,26.30
2022-12-11T04:40:13.270Z,27.02
2022-12-11T04:42:39.825Z,25.92
2022-12-11T04:45:08.290Z,27.60
2022-12-11T04:47:36.505Z,25.38
2022-12-11T04:50:05.000Z,27.02
2022-12-11T04:52:31.554Z,26.90
2022-12-11T04:54:58.271Z,26.15
2022-12-11T04:57:24.920Z,26.13
2022-12-11T04:59:51.571Z,28.05
2022-12-11T05:02:18.126Z,27.33
2022-12-11T05:04:44.703Z,26.35
2022-12-11T05:07:11.436Z,27.42
2022-12-11T05:09:38.022Z,24.90
2022-12-11T05:12:04.664Z,26.02
2022-12-11T05:14:32.383Z,25.67
2022-12-11T05:16:59.713Z,26.80
2022-12-11T05:19:27.149Z,24.00
2022-12-11T05:21:53.958Z,26.02
2022-12-11T05:24:20.610Z,25.13
2022-12-11T05:26:47.115Z,24.48
2022-12-11T05:29:13.669Z,22.65
2022-12-11T05:31:40.265Z,23.45
2022-12-11T05:34:06.864Z,21.15
2022-12-11T05:36:33.990Z,22.20
2022-12-11T05:39:01.592Z,21.48
2022-12-11T05:41:29.844Z,23.67
2022-12-11T05:43:56.630Z,19.98
2022-12-11T05:46:28.613Z,21.60
2022-12-11T05:49:01.559Z,20.95
2022-12-11T05:51:29.286Z,18.25
2022-12-11T05:53:57.497Z,20.88
2022-12-11T05:56:30.314Z,18.10
2022-12-11T05:58:58.020Z,16.88
2022-12-11T06:01:27.207Z,15.27
2022-12-11T06:03:55.100Z,15.48
2022-12-11T06:06:23.756Z,15.35
2022-12-11T06:08:54.972Z,17.15
2022-12-11T06:11:24.686Z,13.70
2022-12-11T06:13:52.426Z,15.10
2022-12-11T06:16:20.261Z,15.02
2022-12-11T06:18:47.204Z,14.65
2022-12-11T06:21:19.647Z,15.13
2022-12-11T06:23:50.240Z,14.68
2022-12-11T06:26:18.088Z,16.38
2022-12-11T06:28:45.141Z,13.63
2022-12-11T06:31:12.555Z,15.48
2022-12-11T06:33:39.979Z,16.48
2022-12-11T06:36:13.202Z,15.90
2022-12-11T06:38:40.345Z,14.98
2022-12-11T06:41:08.210Z,14.57
2022-12-11T06:43:36.999Z,14.90
2022-12-11T06:46:10.024Z,14.15
2022-12-11T06:48:36.838Z,15.18
2022-12-11T06:51:08.996Z,15.48
2022-12-11T06:53:35.957Z,16.20
2022-12-11T06:56:04.878Z,14.88
2022-12-11T06:58:31.732Z,14.32
2022-12-11T07:00:58.385Z,13.88
2022-12-11T07:03:24.951Z,14.23
2022-12-11T07:05:51.487Z,16.15
2022-12-11T07:08:18.132Z,15.65
2022-12-11T07:10:44.746Z,14.85
2022-12-11T07:13:11.372Z,15.07
2022-12-11T07:15:40.457Z,16.00
2022-12-11T07:18:07.248Z,15.65
2022-12-11T07:20:33.834Z,18.17
2022-12-11T07:23:00.441Z,16.42
2022-12-11T07:25:26.932Z,17.70
2022-12-11T07:27:53.516Z,19.15
2022-12-11T07:30:20.178Z,19.60
2022-12-11T07:32:46.791Z,18.40
2022-12-11T07:35:13.666Z,16.63
2022-12-11T07:37:41.528Z,16.35
2022-12-11T07:40:08.837Z,17.40
2022-12-11T07:42:39.214Z,15.70
2022-12-11T07:47:35.207Z,14.75
2022-12-11T07:50:01.837Z,15.55
2022-12-11T07:52:28.596Z,15.63
2022-12-11T07:54:55.082Z,14.77
2022-12-11T07:57:21.594Z,14.82
2022-12-11T07:59:48.107Z,14.02
2022-12-11T08:02:14.624Z,13.90
2022-12-11T08:04:41.186Z,15.52
2022-12-11T08:07:07.692Z,14.70
2022-12-11T08:09:34.197Z,15.20
2022-12-11T08:12:00.764Z,15.75
2022-12-11T08:14:27.245Z,14.05
2022-12-11T08:16:53.902Z,15.18
2022-12-11T08:19:20.495Z,14.20
2022-12-11T08:21:47.127Z,14.55
2022-12-11T08:24:16.249Z,14.77
2022-12-11T08:26:44.447Z,14.18
2022-12-11T08:29:10.972Z,15.35
2022-12-11T08:31:38.506Z,16.02
2022-12-11T08:34:05.008Z,13.85
2022-12-11T08:36:31.526Z,14.45
2022-12-11T08:38:58.075Z,14.10
2022-12-11T08:41:27.400Z,14.98
2022-12-11T08:43:55.296Z,14.98
2022-12-11T08:46:24.877Z,14.00
2022-12-11T08:48:51.905Z,14.88
2022-12-11T08:51:22.647Z,15.25
2022-12-11T08:53:50.329Z,14.70
2022-12-11T08:56:20.542Z,13.70
2022-12-11T08:58:47.643Z,13.70
2022-12-11T09:01:23.359Z,14.20
2022-12-11T09:03:51.153Z,13.77
2022-12-11T09:06:20.460Z,14.85
2022-12-11T09:08:52.315Z,14.07
2022-12-11T09:13:47.739Z,13.45
2022-12-11T09:16:17.590Z,14.30
2022-12-11T09:18:47.313Z,14.38
2022-12-11T09:21:16.987Z,12.82
2022-12-11T09:23:44.378Z,15.15
2022-12-11T09:26:13.725Z,15.57
2022-12-11T09:28:44.407Z,15.15
2022-12-11T09:34:06.673Z,15.68
2022-12-11T09:36:34.476Z,17.67
2022-12-11T09:39:02.309Z,19.55
2022-12-11T09:41:44.441Z,17.10
2022-12-11T09:44:10.899Z,17.67
2022-12-11T09:46:39.241Z,17.35
2022-12-11T09:49:21.288Z,17.95
2022-12-11T09:52:05.570Z,17.60
2022-12-11T09:54:33.003Z,18.27
2022-12-11T09:57:13.989Z,17.10
2022-12-11T10:00:04.744Z,17.08
2022-12-11T10:02:46.671Z,18.73
2022-12-11T10:05:27.070Z,18.08
2022-12-11T10:08:00.717Z,20.48
2022-12-11T10:10:35.379Z,17.63
2022-12-11T10:13:27.660Z,16.80
2022-12-11T10:15:59.962Z,16.65
2022-12-11T10:18:30.250Z,18.13
2022-12-11T10:21:01.108Z,17.17
2022-12-11T10:23:35.568Z,16.85
2022-12-11T10:26:16.475Z,17.95
2022-12-11T10:28:42.967Z,16.45
2022-12-11T10:31:19.786Z,17.08
2022-12-11T10:33:54.071Z,16.02
2022-12-11T10:36:33.842Z,15.88
2022-12-11T10:39:01.158Z,14.82
2022-12-11T10:41:39.014Z,15.30
2022-12-11T10:44:30.901Z,15.32
2022-12-11T10:47:04.154Z,15.10
2022-12-11T10:49:33.607Z,15.55
2022-12-11T10:52:01.604Z,15.52
2022-12-11T10:54:39.486Z,15.27
2022-12-11T10:57:08.745Z,16.48
2022-12-11T10:59:43.217Z,14.70
2022-12-11T11:02:37.454Z,17.05
2022-12-11T11:05:28.429Z,18.92
2022-12-11T11:08:10.930Z,16.52
2022-12-11T11:10:37.609Z,14.88
2022-12-11T11:13:04.313Z,15.48
2022-12-11T11:15:31.222Z,16.33
2022-12-11T11:18:09.521Z,16.00
2022-12-11T11:20:36.143Z,15.45
2022-12-11T11:23:11.179Z,15.00
2022-12-11T11:25:37.779Z,15.38
2022-12-11T11:28:07.719Z,15.68
2022-12-11T11:30:41.403Z,14.35
2022-12-11T11:33:18.850Z,15.65
2022-12-11T11:36:00.288Z,16.27
2022-12-11T11:38:32.727Z,15.55
2022-12-11T11:41:18.171Z,16.60
2022-12-11T11:43:51.878Z,14.77
2022-12-11T11:46:30.293Z,15.63
2022-12-11T11:49:06.808Z,15.75
2022-12-11T11:51:41.424Z,14.43
2022-12-11T11:54:30.264Z,15.07
2022-12-11T11:56:57.380Z,15.05
2022-12-11T11:59:34.892Z,14.05
2022-12-11T12:02:01.576Z,14.77
2022-12-11T12:04:33.755Z,15.30
2022-12-11T12:07:42.127Z,15.82
2022-12-11T12:10:23.049Z,15.00
2022-12-11T12:12:52.301Z,15.30
2022-12-11T12:15:43.734Z,15.35
2022-12-11T12:18:10.184Z,14.98
2022-12-11T12:21:01.385Z,14.32
2022-12-11T12:23:41.160Z,14.45
2022-12-11T12:26:26.423Z,13.88
2022-12-11T12:29:08.954Z,14.00
2022-12-11T12:32:00.421Z,15.77
2022-12-11T12:34:51.384Z,14.50
2022-12-11T12:37:27.069Z,13.75
2022-12-11T12:40:19.882Z,13.73
2022-12-11T12:43:06.909Z,17.92
2022-12-11T12:45:51.736Z,15.18
2022-12-11T12:48:18.666Z,15.15
2022-12-11T12:50:49.163Z,14.55
2022-12-11T12:53:20.596Z,15.27
2022-12-11T12:55:48.462Z,14.90
2022-12-11T12:58:45.473Z,13.80
2022-12-11T13:01:22.004Z,14.65
2022-12-11T13:03:59.645Z,13.43
2022-12-11T13:06:44.237Z,14.70
2022-12-11T13:09:18.579Z,12.82
2022-12-11T13:11:49.987Z,14.15
2022-12-11T13:14:16.453Z,15.07
2022-12-11T13:16:44.695Z,13.95
2022-12-11T13:19:23.367Z,13.90
2022-12-11T13:22:06.178Z,14.10
2022-12-11T13:24:33.806Z,15.02
2022-12-11T13:27:11.552Z,15.52
2022-12-11T13:29:41.156Z,13.73
2022-12-11T13:32:07.605Z,14.20
2022-12-11T13:34:37.500Z,14.40
2022-12-11T13:37:05.768Z,12.65
2022-12-11T13:39:35.319Z,14.20
2022-12-11T13:42:06.796Z,13.15
2022-12-11T13:44:41.537Z,13.40
2022-12-11T13:47:13.889Z,13.27
2022-12-11T13:49:43.359Z,14.18
2022-12-11T13:52:28.516Z,13.80
2022-12-11T13:54:59.134Z,14.48
2022-12-11T13:57:28.295Z,12.73
2022-12-11T13:59:58.009Z,13.40
2022-12-11T14:02:32.536Z,13.82
2022-12-11T14:05:06.251Z,14.20
2022-12-11T14:07:37.754Z,15.05
2022-12-11T14:10:14.770Z,16.38
2022-12-11T14:13:04.095Z,16.65
2022-12-11T14:15:32.093Z,15.90
2022-12-11T14:18:00.190Z,15.15
2022-12-11T14:20:30.045Z,17.42
2022-12-11T14:23:16.894Z,16.67
2022-12-11T14:25:54.859Z,16.02
2022-12-11T14:28:23.184Z,14.25
2022-12-11T14:30:51.924Z,16.50
2022-12-11T14:33:23.686Z,15.27
2022-12-11T14:35:52.410Z,11.47
2022-12-11T14:38:26.056Z,16.80
2022-12-11T14:40:58.906Z,15.93
2022-12-11T14:43:45.330Z,17.48
2022-12-11T14:46:19.857Z,17.25
2022-12-11T14:49:00.404Z,16.95
2022-12-11T14:51:31.300Z,15.20
2022-12-11T14:53:58.170Z,16.70
2022-12-11T14:56:27.400Z,16.20
2022-12-11T14:58:59.966Z,19.33
2022-12-11T15:01:29.515Z,19.10
2022-12-11T15:04:23.817Z,17.52
2022-12-11T15:06:51.977Z,18.10
2022-12-11T15:09:29.636Z,17.80
2022-12-11T15:12:07.920Z,17.58
2022-12-11T15:14:34.626Z,19.00
2022-12-11T15:17:01.334Z,18.92
2022-12-11T15:19:32.572Z,18.80
2022-12-11T15:22:08.392Z,17.67
2022-12-11T15:24:38.660Z,17.10
2022-12-11T15:27:05.859Z,17.20
2022-12-11T15:29:37.974Z,18.95
2022-12-11T15:32:18.957Z,17.50
2022-12-11T15:34:56.428Z,17.92
2022-12-11T15:37:31.613Z,19.15
2022-12-11T15:40:00.837Z,19.73
2022-12-11T15:42:39.747Z,18.73
2022-12-11T15:45:08.952Z,16.45
2022-12-11T15:47:35.660Z,15.88
2022-12-11T15:50:15.463Z,18.00
2022-12-11T15:52:42.554Z,15.48
2022-12-11T15:55:10.314Z,15.80
2022-12-11T15:57:37.677Z,15.00
2022-12-11T16:00:06.458Z,17.10
2022-12-11T16:02:33.602Z,16.90
2022-12-11T16:05:00.178Z,15.45
2022-12-11T16:07:26.762Z,18.52
2022-12-11T16:09:53.592Z,20.58
2022-12-11T16:12:20.379Z,18.63
2022-12-11T16:14:47.015Z,17.10
2022-12-11T16:17:15.337Z,20.95
2022-12-11T16:19:43.007Z,18.30
2022-12-11T16:22:11.082Z,17.38
2022-12-11T16:24:38.095Z,19.70
2022-12-11T16:27:06.592Z,17.75
2022-12-11T16:29:37.844Z,14.82
2022-12-11T16:32:06.992Z,17.48
2022-12-11T16:34:34.517Z,16.55
2022-12-11T16:37:01.402Z,15.73
2022-12-11T16:39:28.211Z,16.95
2022-12-11T16:41:54.943Z,19.85
2022-12-11T16:44:24.302Z,15.95
2022-12-11T16:46:51.269Z,17.40
2022-12-11T16:49:18.148Z,16.83
2022-12-11T16:51:44.771Z,15.25
2022-12-11T16:54:12.358Z,14.30
2022-12-11T16:56:39.072Z,13.30
2022-12-11T16:59:06.358Z,14.45
2022-12-11T17:01:33.487Z,13.73
2022-12-11T17:04:00.684Z,14.43
2022-12-11T17:06:27.398Z,13.25
2022-12-11T17:08:54.031Z,14.00
2022-12-11T17:11:22.949Z,13.95
2022-12-11T17:13:59.893Z,14.75
2022-12-11T17:16:30.236Z,14.13
2022-12-11T17:18:57.743Z,14.05
2022-12-11T17:21:24.479Z,18.38
2022-12-11T17:23:51.471Z,22.83
2022-12-11T17:26:18.598Z,15.50
2022-12-11T17:28:45.675Z,17.25
2022-12-11T17:31:16.980Z,16.80
2022-12-11T17:33:44.660Z,17.73
2022-12-11T17:36:14.818Z,17.20
2022-12-11T17:38:42.420Z,22.63
2022-12-11T17:41:15.515Z,20.40
2022-12-11T17:43:47.151Z,20.80
2022-12-11T17:46:14.544Z,17.08
2022-12-11T17:48:41.159Z,15.65
2022-12-11T17:51:09.506Z,14.35
2022-12-11T17:53:36.753Z,17.05
2022-12-11T17:56:06.248Z,17.88
2022-12-11T17:58:32.982Z,19.25
2022-12-11T18:00:59.919Z,19.05
2022-12-11T18:03:28.318Z,25.25
2022-12-11T18:05:57.096Z,25.88
2022-12-11T18:08:29.880Z,21.58
2022-12-11T18:11:05.367Z,20.38
2022-12-11T18:13:32.054Z,16.35
2022-12-11T18:16:03.558Z,16.02
2022-12-11T18:18:30.848Z,16.92
2022-12-11T18:20:57.883Z,17.70
2022-12-11T18:23:24.600Z,16.67
2022-12-11T18:25:51.917Z,17.77
2022-12-11T18:28:18.534Z,17.13
2022-12-11T18:30:45.190Z,18.02
2022-12-11T18:33:13.015Z,15.85
2022-12-11T18:35:40.495Z,18.15
2022-12-11T18:38:07.212Z,17.95
2022-12-11T18:40:33.886Z,18.40
2022-12-11T18:43:00.475Z,19.10
2022-12-11T18:45:27.030Z,15.73
2022-12-11T18:47:55.609Z,17.00
2022-12-11T18:50:22.232Z,17.80
2022-12-11T18:52:53.002Z,17.80
2022-12-11T18:55:19.572Z,17.80
2022-12-11T18:57:46.081Z,16.67
2022-12-11T19:00:13.342Z,16.38
2022-12-11T19:02:39.870Z,16.65
2022-12-11T19:05:06.617Z,17.67
2022-12-11T19:07:34.560Z,20.52
2022-12-11T19:10:01.547Z,18.70
2022-12-11T19:12:28.205Z,22.27
2022-12-11T19:14:54.768Z,19.27
2022-12-11T19:17:21.330Z,21.75
2022-12-11T19:19:47.901Z,19.38
2022-12-11T19:22:14.971Z,19.70
2022-12-11T19:24:41.521Z,16.85
2022-12-11T19:27:13.203Z,17.05
2022-12-11T19:29:40.359Z,16.25
2022-12-11T19:32:08.164Z,16.70
2022-12-11T19:34:34.721Z,18.73
2022-12-11T19:37:01.266Z,16.90
2022-12-11T19:39:28.030Z,21.98
2022-12-11T19:41:54.554Z,19.13
2022-12-11T19:44:21.171Z,17.15
2022-12-11T19:46:48.997Z,16.52
2022-12-11T19:49:16.196Z,15.88
2022-12-11T19:51:43.110Z,17.00
2022-12-11T19:54:13.448Z,21.83
2022-12-11T19:56:40.245Z,23.80
2022-12-11T19:59:08.792Z,23.85
2022-12-11T20:01:37.464Z,24.63
2022-12-11T20:04:07.559Z,22.90
2022-12-11T20:06:36.093Z,21.02
2022-12-11T20:09:03.511Z,24.25
2022-12-11T20:11:32.400Z,22.80
2022-12-11T20:13:59.936Z,20.17
2022-12-11T20:16:53.359Z,19.50
2022-12-11T20:19:13.119Z,20.40
2022-12-11T20:21:39.868Z,18.92
2022-12-11T20:24:06.812Z,18.48
2022-12-11T20:26:35.966Z,17.88
2022-12-11T20:29:05.216Z,17.75
2022-12-11T20:31:31.947Z,18.05
2022-12-11T20:33:58.526Z,18.80
2022-12-11T20:36:26.088Z,18.05
2022-12-11T20:38:53.066Z,16.45
2022-12-11T20:41:22.488Z,18.55
2022-12-11T20:43:49.497Z,18.80
2022-12-11T20:46:17.758Z,17.95
2022-12-11T20:48:45.191Z,18.63
2022-12-11T20:51:14.236Z,17.88
2022-12-11T20:53:42.796Z,17.77
2022-12-11T20:56:16.592Z,16.65
2022-12-11T20:58:44.248Z,16.60
2022-12-11T21:01:19.935Z,16.88
2022-12-11T21:03:46.729Z,17.10
2022-12-11T21:06:25.865Z,17.35
2022-12-11T21:08:53.351Z,17.48
2022-12-11T21:11:20.397Z,17.35
2022-12-11T21:13:50.559Z,16.05
2022-12-11T21:16:19.139Z,16.98
2022-12-11T21:18:46.598Z,22.98
2022-12-11T21:21:14.848Z,22.17
2022-12-11T21:23:41.688Z,20.15
2022-12-11T21:26:08.378Z,19.90
2022-12-11T21:28:35.843Z,17.27
2022-12-11T21:31:06.160Z,16.48
2022-12-11T21:33:32.743Z,16.52
2022-12-11T21:36:00.081Z,15.18
2022-12-11T21:38:27.363Z,15.75
2022-12-11T21:40:55.416Z,15.02
2022-12-11T21:43:23.974Z,15.07
2022-12-11T21:46:06.969Z,16.08
2022-12-11T21:48:33.772Z,15.63
2022-12-11T21:51:13.395Z,15.02
2022-12-11T21:53:40.360Z,15.32
2022-12-11T21:56:09.495Z,15.85
2022-12-11T21:58:37.173Z,14.75
2022-12-11T22:01:05.563Z,14.57
2022-12-11T22:03:32.286Z,16.05
2022-12-11T22:05:58.890Z,15.18
2022-12-11T22:08:25.468Z,16.08
2022-12-11T22:10:52.773Z,16.27
2022-12-11T22:13:19.303Z,14.20
2022-12-11T22:15:46.171Z,15.90
2022-12-11T22:18:12.975Z,15.15
2022-12-11T22:20:39.607Z,14.20
2022-12-11T22:23:06.137Z,15.40
2022-12-11T22:25:32.720Z,14.55
2022-12-11T22:27:59.224Z,17.30
2022-12-11T22:30:25.751Z,15.73
2022-12-11T22:32:52.321Z,15.90
2022-12-11T22:35:24.133Z,15.88
2022-12-11T22:37:53.494Z,16.00
2022-12-11T22:40:20.039Z,17.63
2022-12-11T22:42:46.607Z,18.88
2022-12-11T22:45:13.693Z,16.52
2022-12-11T22:47:41.103Z,16.25
2022-12-11T22:50:09.156Z,14.57
2022-12-11T22:52:36.782Z,15.32
2022-12-11T22:55:03.526Z,15.93
2022-12-11T22:57:30.049Z,15.48
2022-12-11T22:59:59.463Z,16.20
2022-12-11T23:02:26.147Z,14.77
2022-12-11T23:04:53.826Z,13.93
2022-12-11T23:07:20.463Z,13.77
2022-12-11T23:09:47.031Z,16.02
2022-12-11T23:12:13.506Z,14.60
2022-12-11T23:14:40.065Z,14.70
2022-12-11T23:17:06.613Z,13.93
2022-12-11T23:19:34.618Z,15.07
2022-12-11T23:22:01.218Z,14.05
2022-12-11T23:24:27.856Z,14.93
2022-12-11T23:26:54.444Z,14.25
2022-12-11T23:29:21.007Z,14.77
2022-12-11T23:31:47.560Z,15.18
2022-12-11T23:34:14.163Z,15.18
2022-12-11T23:36:40.728Z,15.50
2022-12-11T23:39:07.234Z,15.25
2022-12-11T23:41:33.779Z,15.32
2022-12-11T23:44:00.424Z,15.02
2022-12-11T23:46:27.071Z,15.60
2022-12-11T23:48:54.580Z,15.57
2022-12-11T23:51:22.954Z,15.30
2022-12-11T23:53:49.910Z,16.25
2022-12-11T23:56:23.082Z,15.27
2022-12-11T23:58:49.862Z,13.93
